METAR Data
IDs: Format: Raw Decoded Include TAF

Data at: 1535 UTC 27 Nov 2021

K06C 271515Z AUTO 21005KT 10SM BKN100 BKN120 01/M04 A2989 RMK AO2 T00081040